KDOV/DOV METAR and TAF weather

Enter ICAO airport designator
Station Type Date Time Source
KDOV METAR 2018/09/21 17:56 UTC NOAA

KDOV 211756Z 17009KT 10SM SCT029 SCT044 BKN090 BKN160 25/19 A3016 RMK AO2A SLP216 T02450186 10245 20194 57020 $


Station Type Date Time Source
KDOV Decoded METAR 2018/09/21 17:56 UTC NOAA

Dover Air Force Base, DE, United States (KDOV) 39-08N 075-28W
Sep 21, 2018 - 01:56 PM EDT / 2018.09.21 1756 UTC
Wind: from the S (170 degrees) at 10 MPH (9 KT):0
Visibility: 10 mile(s):0
Sky conditions: mostly cloudy
Temperature: 76.1 F (24.5 C)
Dew Point: 65.5 F (18.6 C)
Relative Humidity: 69%
Pressure (altimeter): 30.16 in. Hg (1021 hPa)
Pressure tendency: 0.06 inches (2.0 hPa) lower than three hours ago
ob: KDOV 211756Z 17009KT 10SM SCT029 SCT044 BKN090 BKN160 25/19 A3016 RMK AO2A SLP216 T02450186 10245 20194 57020
cycle: 18

Station Type Date Time Source
KDOV TAF 2018/09/21 16:10 UTC NOAA

TAF KDOV 211600Z 2116/2222 16009KT 9999 SCT030 OVC050 QNH3012INS
BECMG 2117/2118 18012KT 9999 OVC040 QNH2998INS
BECMG 2205/2206 20009KT 9999 BKN018 QNH2997INS
BECMG 2210/2211 25009KT 9999 SCT020 QNH3005INS
BECMG 2215/2216 35012KT 9999 FEW050 QNH3009INS
TEMPO 2216/2218 36015G20KT TX26/2120Z TN19/2210Z


Example: see airport list